sensor_id;sensor_type;location;lat;lon;timestamp;temperature;humidity
36716;DHT22;22699;51.034;3.730;2023-06-01T00:01:42;16.20;99.90
36716;DHT22;22699;51.034;3.730;2023-06-01T00:04:08;16.20;99.90
36716;DHT22;22699;51.034;3.730;2023-06-01T00:06:34;16.10;99.90
36716;DHT22;22699;51.034;3.730;2023-06-01T00:09:01;16.10;99.90
36716;DHT22;22699;51.034;3.730;2023-06-01T00:11:28;16.10;99.90
36716;DHT22;22699;51.034;3.730;2023-06-01T00:13:53;16.00;99.90
36716;DHT22;22699;51.034;3.730;2023-06-01T00:16:19;16.00;99.90
36716;DHT22;22699;51.034;3.730;2023-06-01T00:18:45;16.00;99.90
36716;DHT22;22699;51.034;3.730;2023-06-01T00:21:12;16.00;99.90
36716;DHT22;22699;51.034;3.730;2023-06-01T00:23:37;15.90;99.90
36716;DHT22;22699;51.034;3.730;2023-06-01T00:26:07;15.90;99.90
36716;DHT22;22699;51.034;3.730;2023-06-01T00:28:33;15.80;99.90
36716;DHT22;22699;51.034;3.730;2023-06-01T00:30:59;15.80;99.90
36716;DHT22;22699;51.034;3.730;2023-06-01T00:33:25;15.70;99.90
36716;DHT22;22699;51.034;3.730;2023-06-01T00:35:51;15.80;99.90
36716;DHT22;22699;51.034;3.730;2023-06-01T00:38:17;15.70;99.90
36716;DHT22;22699;51.034;3.730;2023-06-01T00:40:43;15.60;99.90
36716;DHT22;22699;51.034;3.730;2023-06-01T00:43:10;15.60;99.90
36716;DHT22;22699;51.034;3.730;2023-06-01T00:45:36;15.50;99.90
36716;DHT22;22699;51.034;3.730;2023-06-01T00:48:05;15.50;99.90
36716;DHT22;22699;51.034;3.730;2023-06-01T00:50:33;15.60;99.90
36716;DHT22;22699;51.034;3.730;2023-06-01T00:53:00;15.50;99.90
36716;DHT22;22699;51.034;3.730;2023-06-01T00:55:27;15.50;99.90
36716;DHT22;22699;51.034;3.730;2023-06-01T00:57:54;15.40;99.90
36716;DHT22;22699;51.034;3.730;2023-06-01T01:00:21;15.40;99.90
36716;DHT22;22699;51.034;3.730;2023-06-01T01:02:48;15.40;99.90
36716;DHT22;22699;51.034;3.730;2023-06-01T01:05:15;15.40;99.90
36716;DHT22;22699;51.034;3.730;2023-06-01T01:13:20;15.40;99.90
36716;DHT22;22699;51.034;3.730;2023-06-01T01:16:10;15.40;99.90
36716;DHT22;22699;51.034;3.730;2023-06-01T01:18:49;15.40;99.90
36716;DHT22;22699;51.034;3.730;2023-06-01T01:21:21;15.30;99.90
36716;DHT22;22699;51.034;3.730;2023-06-01T01:29:34;15.20;99.90
36716;DHT22;22699;51.034;3.730;2023-06-01T01:32:03;15.20;99.90
36716;DHT22;22699;51.034;3.730;2023-06-01T01:34:30;15.20;99.90
36716;DHT22;22699;51.034;3.730;2023-06-01T01:36:56;15.10;99.90
36716;DHT22;22699;51.034;3.730;2023-06-01T01:39:22;15.10;99.90
36716;DHT22;22699;51.034;3.730;2023-06-01T01:41:47;15.10;99.90
36716;DHT22;22699;51.034;3.730;2023-06-01T01:44:13;15.00;99.90
36716;DHT22;22699;51.034;3.730;2023-06-01T01:46:57;15.00;99.90
36716;DHT22;22699;51.034;3.730;2023-06-01T01:49:43;15.00;99.90
36716;DHT22;22699;51.034;3.730;2023-06-01T01:54:45;14.90;99.90
36716;DHT22;22699;51.034;3.730;2023-06-01T01:57:12;14.90;99.90
36716;DHT22;22699;51.034;3.730;2023-06-01T01:59:38;14.80;99.90
36716;DHT22;22699;51.034;3.730;2023-06-01T02:02:05;14.80;99.90
36716;DHT22;22699;51.034;3.730;2023-06-01T02:04:31;14.80;99.90
36716;DHT22;22699;51.034;3.730;2023-06-01T02:06:56;14.80;99.90
36716;DHT22;22699;51.034;3.730;2023-06-01T02:09:22;14.80;99.90
36716;DHT22;22699;51.034;3.730;2023-06-01T02:11:48;14.80;99.90
36716;DHT22;22699;51.034;3.730;2023-06-01T02:14:13;14.70;99.90
36716;DHT22;22699;51.034;3.730;2023-06-01T02:16:39;14.70;99.90
36716;DHT22;22699;51.034;3.730;2023-06-01T02:19:05;14.70;99.90
36716;DHT22;22699;51.034;3.730;2023-06-01T02:21:31;14.60;99.90
36716;DHT22;22699;51.034;3.730;2023-06-01T02:23:57;14.60;99.90
36716;DHT22;22699;51.034;3.730;2023-06-01T02:26:29;14.60;99.90
36716;DHT22;22699;51.034;3.730;2023-06-01T02:28:56;14.50;99.90
36716;DHT22;22699;51.034;3.730;2023-06-01T02:31:22;14.50;99.90
36716;DHT22;22699;51.034;3.730;2023-06-01T02:33:48;14.50;99.90
36716;DHT22;22699;51.034;3.730;2023-06-01T02:36:14;14.50;99.90
36716;DHT22;22699;51.034;3.730;2023-06-01T02:38:42;14.50;99.90
36716;DHT22;22699;51.034;3.730;2023-06-01T02:41:07;14.50;99.90
36716;DHT22;22699;51.034;3.730;2023-06-01T02:43:34;14.40;99.90
36716;DHT22;22699;51.034;3.730;2023-06-01T02:46:01;14.50;99.90
36716;DHT22;22699;51.034;3.730;2023-06-01T02:48:26;14.50;99.90
36716;DHT22;22699;51.034;3.730;2023-06-01T02:50:53;14.50;99.90
36716;DHT22;22699;51.034;3.730;2023-06-01T02:53:19;14.50;99.90
36716;DHT22;22699;51.034;3.730;2023-06-01T02:55:44;14.40;99.90
36716;DHT22;22699;51.034;3.730;2023-06-01T02:58:10;14.50;99.90
36716;DHT22;22699;51.034;3.730;2023-06-01T03:00:42;14.50;99.90
36716;DHT22;22699;51.034;3.730;2023-06-01T03:03:09;14.40;99.90
36716;DHT22;22699;51.034;3.730;2023-06-01T03:05:35;14.40;99.90
36716;DHT22;22699;51.034;3.730;2023-06-01T03:08:01;14.40;99.90
36716;DHT22;22699;51.034;3.730;2023-06-01T03:10:27;14.40;99.90
36716;DHT22;22699;51.034;3.730;2023-06-01T03:12:53;14.40;99.90
36716;DHT22;22699;51.034;3.730;2023-06-01T03:15:19;14.40;99.90
36716;DHT22;22699;51.034;3.730;2023-06-01T03:17:44;14.30;99.90
36716;DHT22;22699;51.034;3.730;2023-06-01T03:20:10;14.40;99.90
36716;DHT22;22699;51.034;3.730;2023-06-01T03:22:43;14.30;99.90
36716;DHT22;22699;51.034;3.730;2023-06-01T03:25:09;14.20;99.90
36716;DHT22;22699;51.034;3.730;2023-06-01T03:27:36;14.30;99.90
36716;DHT22;22699;51.034;3.730;2023-06-01T03:30:03;14.20;99.90
36716;DHT22;22699;51.034;3.730;2023-06-01T03:32:30;14.20;99.90
36716;DHT22;22699;51.034;3.730;2023-06-01T03:34:55;14.10;99.90
36716;DHT22;22699;51.034;3.730;2023-06-01T03:37:22;14.10;99.90
36716;DHT22;22699;51.034;3.730;2023-06-01T03:39:47;14.00;99.90
36716;DHT22;22699;51.034;3.730;2023-06-01T03:42:13;14.10;99.90
36716;DHT22;22699;51.034;3.730;2023-06-01T03:44:39;14.00;99.90
36716;DHT22;22699;51.034;3.730;2023-06-01T03:47:06;14.00;99.90
36716;DHT22;22699;51.034;3.730;2023-06-01T03:49:32;14.00;99.90
36716;DHT22;22699;51.034;3.730;2023-06-01T03:51:58;14.00;99.90
36716;DHT22;22699;51.034;3.730;2023-06-01T03:54:23;14.00;99.90
36716;DHT22;22699;51.034;3.730;2023-06-01T03:56:49;14.10;99.90
36716;DHT22;22699;51.034;3.730;2023-06-01T03:59:15;14.10;99.90
36716;DHT22;22699;51.034;3.730;2023-06-01T04:01:41;14.10;99.90
36716;DHT22;22699;51.034;3.730;2023-06-01T04:04:08;14.10;99.90
36716;DHT22;22699;51.034;3.730;2023-06-01T04:06:37;14.20;99.90
36716;DHT22;22699;51.034;3.730;2023-06-01T04:09:03;14.10;99.90
36716;DHT22;22699;51.034;3.730;2023-06-01T04:11:35;14.10;99.90
36716;DHT22;22699;51.034;3.730;2023-06-01T04:14:01;14.10;99.90
36716;DHT22;22699;51.034;3.730;2023-06-01T04:16:29;14.00;99.90
36716;DHT22;22699;51.034;3.730;2023-06-01T04:18:54;14.10;99.90
36716;DHT22;22699;51.034;3.730;2023-06-01T04:21:21;14.00;99.90
36716;DHT22;22699;51.034;3.730;2023-06-01T04:23:47;13.90;99.90
36716;DHT22;22699;51.034;3.730;2023-06-01T04:26:12;13.90;99.90
36716;DHT22;22699;51.034;3.730;2023-06-01T04:28:39;14.00;99.90
36716;DHT22;22699;51.034;3.730;2023-06-01T04:31:11;14.00;99.90
36716;DHT22;22699;51.034;3.730;2023-06-01T04:33:43;14.10;99.90
36716;DHT22;22699;51.034;3.730;2023-06-01T04:36:14;14.20;99.90
36716;DHT22;22699;51.034;3.730;2023-06-01T04:38:47;14.40;99.90
36716;DHT22;22699;51.034;3.730;2023-06-01T04:41:17;14.40;99.90
36716;DHT22;22699;51.034;3.730;2023-06-01T04:43:42;14.40;99.90
36716;DHT22;22699;51.034;3.730;2023-06-01T04:46:08;14.40;99.90
36716;DHT22;22699;51.034;3.730;2023-06-01T04:48:34;14.50;99.90
36716;DHT22;22699;51.034;3.730;2023-06-01T04:50:59;14.60;99.90
36716;DHT22;22699;51.034;3.730;2023-06-01T04:53:26;14.50;99.90
36716;DHT22;22699;51.034;3.730;2023-06-01T04:55:54;14.40;99.90
36716;DHT22;22699;51.034;3.730;2023-06-01T04:58:21;14.50;99.90
36716;DHT22;22699;51.034;3.730;2023-06-01T05:00:47;14.50;99.90
36716;DHT22;22699;51.034;3.730;2023-06-01T05:03:13;14.50;99.90
36716;DHT22;22699;51.034;3.730;2023-06-01T05:05:38;14.50;99.90
36716;DHT22;22699;51.034;3.730;2023-06-01T05:08:04;14.60;99.90
36716;DHT22;22699;51.034;3.730;2023-06-01T05:10:30;14.60;99.90
36716;DHT22;22699;51.034;3.730;2023-06-01T05:12:55;14.50;99.90
36716;DHT22;22699;51.034;3.730;2023-06-01T05:15:21;14.50;99.90
36716;DHT22;22699;51.034;3.730;2023-06-01T05:17:47;14.40;99.90
36716;DHT22;22699;51.034;3.730;2023-06-01T05:20:13;14.30;99.90
36716;DHT22;22699;51.034;3.730;2023-06-01T05:22:38;14.40;99.90
36716;DHT22;22699;51.034;3.730;2023-06-01T05:25:04;14.40;99.90
36716;DHT22;22699;51.034;3.730;2023-06-01T05:27:33;14.40;99.90
36716;DHT22;22699;51.034;3.730;2023-06-01T05:29:58;14.40;99.90
36716;DHT22;22699;51.034;3.730;2023-06-01T05:32:24;14.40;99.90
36716;DHT22;22699;51.034;3.730;2023-06-01T05:34:50;14.30;99.90
36716;DHT22;22699;51.034;3.730;2023-06-01T05:37:15;14.60;99.90
36716;DHT22;22699;51.034;3.730;2023-06-01T05:39:41;14.80;99.90
36716;DHT22;22699;51.034;3.730;2023-06-01T05:42:07;14.90;99.90
36716;DHT22;22699;51.034;3.730;2023-06-01T05:44:32;14.80;99.90
36716;DHT22;22699;51.034;3.730;2023-06-01T05:46:58;14.70;99.90
36716;DHT22;22699;51.034;3.730;2023-06-01T05:49:23;14.70;99.90
36716;DHT22;22699;51.034;3.730;2023-06-01T05:51:50;14.60;99.90
36716;DHT22;22699;51.034;3.730;2023-06-01T05:54:16;14.60;99.90
36716;DHT22;22699;51.034;3.730;2023-06-01T05:56:41;14.80;99.90
36716;DHT22;22699;51.034;3.730;2023-06-01T05:59:07;15.10;99.90
36716;DHT22;22699;51.034;3.730;2023-06-01T06:01:32;15.30;99.90
36716;DHT22;22699;51.034;3.730;2023-06-01T06:03:58;15.50;99.90
36716;DHT22;22699;51.034;3.730;2023-06-01T06:06:24;15.60;99.90
36716;DHT22;22699;51.034;3.730;2023-06-01T06:08:52;15.80;99.90
36716;DHT22;22699;51.034;3.730;2023-06-01T06:11:18;15.80;99.90
36716;DHT22;22699;51.034;3.730;2023-06-01T06:13:44;16.00;99.90
36716;DHT22;22699;51.034;3.730;2023-06-01T06:16:10;15.70;99.90
36716;DHT22;22699;51.034;3.730;2023-06-01T06:18:36;15.50;99.90
36716;DHT22;22699;51.034;3.730;2023-06-01T06:21:01;15.30;99.90
36716;DHT22;22699;51.034;3.730;2023-06-01T06:23:27;15.20;99.90
36716;DHT22;22699;51.034;3.730;2023-06-01T06:25:53;15.10;99.90
36716;DHT22;22699;51.034;3.730;2023-06-01T06:28:19;15.30;99.90
36716;DHT22;22699;51.034;3.730;2023-06-01T06:30:45;15.80;99.90
36716;DHT22;22699;51.034;3.730;2023-06-01T06:33:11;16.00;99.90
36716;DHT22;22699;51.034;3.730;2023-06-01T06:35:37;16.10;99.90
36716;DHT22;22699;51.034;3.730;2023-06-01T06:38:04;16.30;99.90
36716;DHT22;22699;51.034;3.730;2023-06-01T06:40:30;16.30;99.90
36716;DHT22;22699;51.034;3.730;2023-06-01T06:42:55;16.40;99.90
36716;DHT22;22699;51.034;3.730;2023-06-01T06:45:21;16.40;99.90
36716;DHT22;22699;51.034;3.730;2023-06-01T06:47:46;16.40;99.80
36716;DHT22;22699;51.034;3.730;2023-06-01T06:50:12;16.40;99.70
36716;DHT22;22699;51.034;3.730;2023-06-01T06:52:38;16.20;99.70
36716;DHT22;22699;51.034;3.730;2023-06-01T06:55:05;16.10;99.90
36716;DHT22;22699;51.034;3.730;2023-06-01T06:57:31;16.10;99.90
36716;DHT22;22699;51.034;3.730;2023-06-01T06:59:59;16.20;99.90
36716;DHT22;22699;51.034;3.730;2023-06-01T07:02:26;16.40;99.50
36716;DHT22;22699;51.034;3.730;2023-06-01T07:04:51;16.10;99.70
36716;DHT22;22699;51.034;3.730;2023-06-01T07:07:17;16.20;99.90
36716;DHT22;22699;51.034;3.730;2023-06-01T07:09:43;16.10;99.90
36716;DHT22;22699;51.034;3.730;2023-06-01T07:12:09;16.10;99.90
36716;DHT22;22699;51.034;3.730;2023-06-01T07:14:34;16.40;99.80
36716;DHT22;22699;51.034;3.730;2023-06-01T07:17:00;16.90;99.60
36716;DHT22;22699;51.034;3.730;2023-06-01T07:19:26;18.40;98.30
36716;DHT22;22699;51.034;3.730;2023-06-01T07:21:59;21.30;95.00
36716;DHT22;22699;51.034;3.730;2023-06-01T07:24:26;23.30;87.80
36716;DHT22;22699;51.034;3.730;2023-06-01T07:26:53;25.10;79.50
36716;DHT22;22699;51.034;3.730;2023-06-01T07:29:21;26.40;71.60
36716;DHT22;22699;51.034;3.730;2023-06-01T07:31:47;28.30;66.50
36716;DHT22;22699;51.034;3.730;2023-06-01T07:34:12;29.50;62.20
36716;DHT22;22699;51.034;3.730;2023-06-01T07:36:40;31.40;59.10
36716;DHT22;22699;51.034;3.730;2023-06-01T07:39:06;32.80;54.70
36716;DHT22;22699;51.034;3.730;2023-06-01T07:41:34;32.00;53.60
36716;DHT22;22699;51.034;3.730;2023-06-01T07:44:00;32.70;52.80
36716;DHT22;22699;51.034;3.730;2023-06-01T07:46:25;33.50;50.60
36716;DHT22;22699;51.034;3.730;2023-06-01T07:48:51;34.30;49.50
36716;DHT22;22699;51.034;3.730;2023-06-01T07:51:17;35.10;48.10
36716;DHT22;22699;51.034;3.730;2023-06-01T07:53:42;34.80;47.40
36716;DHT22;22699;51.034;3.730;2023-06-01T07:56:09;34.70;47.50
36716;DHT22;22699;51.034;3.730;2023-06-01T07:58:34;35.40;45.80
36716;DHT22;22699;51.034;3.730;2023-06-01T08:01:02;35.30;45.80
36716;DHT22;22699;51.034;3.730;2023-06-01T08:03:28;36.10;45.20
36716;DHT22;22699;51.034;3.730;2023-06-01T08:05:53;37.10;44.40
36716;DHT22;22699;51.034;3.730;2023-06-01T08:08:25;37.00;43.80
36716;DHT22;22699;51.034;3.730;2023-06-01T08:10:50;37.70;43.10
36716;DHT22;22699;51.034;3.730;2023-06-01T08:13:17;38.30;42.70
36716;DHT22;22699;51.034;3.730;2023-06-01T08:15:46;39.30;41.60
36716;DHT22;22699;51.034;3.730;2023-06-01T08:18:15;37.20;42.00
36716;DHT22;22699;51.034;3.730;2023-06-01T08:20:40;38.00;42.20
36716;DHT22;22699;51.034;3.730;2023-06-01T08:23:07;38.60;41.70
36716;DHT22;22699;51.034;3.730;2023-06-01T08:25:33;37.80;41.80
36716;DHT22;22699;51.034;3.730;2023-06-01T08:27:59;38.90;41.00
36716;DHT22;22699;51.034;3.730;2023-06-01T08:30:27;40.20;39.90
36716;DHT22;22699;51.034;3.730;2023-06-01T08:32:53;40.30;39.40
36716;DHT22;22699;51.034;3.730;2023-06-01T08:35:19;40.30;38.90
36716;DHT22;22699;51.034;3.730;2023-06-01T08:37:46;41.00;38.60
36716;DHT22;22699;51.034;3.730;2023-06-01T08:40:12;41.90;38.20
36716;DHT22;22699;51.034;3.730;2023-06-01T08:45:19;39.90;38.80
36716;DHT22;22699;51.034;3.730;2023-06-01T08:47:46;38.10;39.50
36716;DHT22;22699;51.034;3.730;2023-06-01T08:50:15;37.00;40.10
36716;DHT22;22699;51.034;3.730;2023-06-01T08:52:43;38.80;39.90
36716;DHT22;22699;51.034;3.730;2023-06-01T08:55:11;39.30;39.40
36716;DHT22;22699;51.034;3.730;2023-06-01T08:57:40;39.60;39.10
36716;DHT22;22699;51.034;3.730;2023-06-01T09:00:08;39.70;39.10
36716;DHT22;22699;51.034;3.730;2023-06-01T09:02:35;39.10;38.90
36716;DHT22;22699;51.034;3.730;2023-06-01T09:05:01;40.00;39.30
36716;DHT22;22699;51.034;3.730;2023-06-01T09:07:27;41.10;37.60
36716;DHT22;22699;51.034;3.730;2023-06-01T09:09:53;41.10;37.10
36716;DHT22;22699;51.034;3.730;2023-06-01T09:12:24;41.90;36.80
36716;DHT22;22699;51.034;3.730;2023-06-01T09:15:06;41.70;36.90
36716;DHT22;22699;51.034;3.730;2023-06-01T09:17:32;40.40;37.30
36716;DHT22;22699;51.034;3.730;2023-06-01T09:19:58;40.20;37.50
36716;DHT22;22699;51.034;3.730;2023-06-01T09:22:23;41.70;37.30
36716;DHT22;22699;51.034;3.730;2023-06-01T09:24:59;41.50;37.00
36716;DHT22;22699;51.034;3.730;2023-06-01T09:27:26;42.00;37.10
36716;DHT22;22699;51.034;3.730;2023-06-01T09:30:10;42.70;37.10
36716;DHT22;22699;51.034;3.730;2023-06-01T09:32:35;42.90;36.20
36716;DHT22;22699;51.034;3.730;2023-06-01T09:35:01;44.10;35.70
36716;DHT22;22699;51.034;3.730;2023-06-01T09:37:28;44.40;35.10
36716;DHT22;22699;51.034;3.730;2023-06-01T09:39:53;44.40;35.40
36716;DHT22;22699;51.034;3.730;2023-06-01T09:42:33;44.30;34.70
36716;DHT22;22699;51.034;3.730;2023-06-01T09:47:42;42.00;36.10
36716;DHT22;22699;51.034;3.730;2023-06-01T09:50:08;42.00;35.90
36716;DHT22;22699;51.034;3.730;2023-06-01T09:52:34;42.90;35.70
36716;DHT22;22699;51.034;3.730;2023-06-01T09:55:06;41.30;36.20
36716;DHT22;22699;51.034;3.730;2023-06-01T09:57:31;39.60;37.40
36716;DHT22;22699;51.034;3.730;2023-06-01T09:59:57;37.90;38.70
36716;DHT22;22699;51.034;3.730;2023-06-01T10:02:23;36.90;40.00
36716;DHT22;22699;51.034;3.730;2023-06-01T10:04:54;37.40;39.10
36716;DHT22;22699;51.034;3.730;2023-06-01T10:07:26;36.50;39.50
36716;DHT22;22699;51.034;3.730;2023-06-01T10:09:57;34.50;41.00
36716;DHT22;22699;51.034;3.730;2023-06-01T10:12:24;32.80;43.40
36716;DHT22;22699;51.034;3.730;2023-06-01T10:14:51;31.10;45.00
36716;DHT22;22699;51.034;3.730;2023-06-01T10:17:20;30.10;46.60
36716;DHT22;22699;51.034;3.730;2023-06-01T10:19:46;28.50;48.40
36716;DHT22;22699;51.034;3.730;2023-06-01T10:22:12;27.60;49.70
36716;DHT22;22699;51.034;3.730;2023-06-01T10:24:38;26.30;52.30
36716;DHT22;22699;51.034;3.730;2023-06-01T10:27:16;25.90;53.70
36716;DHT22;22699;51.034;3.730;2023-06-01T10:29:45;25.30;54.60
36716;DHT22;22699;51.034;3.730;2023-06-01T10:32:45;24.70;55.80
36716;DHT22;22699;51.034;3.730;2023-06-01T10:40:42;23.30;60.50
36716;DHT22;22699;51.034;3.730;2023-06-01T10:43:38;23.00;60.40
36716;DHT22;22699;51.034;3.730;2023-06-01T10:45:53;22.80;60.50
36716;DHT22;22699;51.034;3.730;2023-06-01T10:48:52;22.90;61.40
36716;DHT22;22699;51.034;3.730;2023-06-01T10:51:22;22.70;62.70
36716;DHT22;22699;51.034;3.730;2023-06-01T10:53:50;22.60;62.80
36716;DHT22;22699;51.034;3.730;2023-06-01T10:56:24;22.60;63.50
36716;DHT22;22699;51.034;3.730;2023-06-01T11:01:40;22.30;64.60
36716;DHT22;22699;51.034;3.730;2023-06-01T11:04:06;22.30;64.50
36716;DHT22;22699;51.034;3.730;2023-06-01T11:06:34;22.30;64.50
36716;DHT22;22699;51.034;3.730;2023-06-01T11:09:03;22.20;64.10
36716;DHT22;22699;51.034;3.730;2023-06-01T11:14:19;22.10;65.30
36716;DHT22;22699;51.034;3.730;2023-06-01T11:16:46;22.20;65.20
36716;DHT22;22699;51.034;3.730;2023-06-01T11:21:46;22.20;63.40
36716;DHT22;22699;51.034;3.730;2023-06-01T11:24:14;22.20;63.80
36716;DHT22;22699;51.034;3.730;2023-06-01T11:26:46;22.20;63.30
36716;DHT22;22699;51.034;3.730;2023-06-01T11:29:20;22.30;64.00
36716;DHT22;22699;51.034;3.730;2023-06-01T11:31:53;22.20;64.30
36716;DHT22;22699;51.034;3.730;2023-06-01T11:34:19;22.20;64.00
36716;DHT22;22699;51.034;3.730;2023-06-01T11:36:52;22.20;63.00
36716;DHT22;22699;51.034;3.730;2023-06-01T11:39:22;22.30;63.10
36716;DHT22;22699;51.034;3.730;2023-06-01T11:42:02;22.10;63.50
36716;DHT22;22699;51.034;3.730;2023-06-01T11:44:30;22.00;64.60
36716;DHT22;22699;51.034;3.730;2023-06-01T11:46:57;21.90;64.40
36716;DHT22;22699;51.034;3.730;2023-06-01T11:49:24;21.80;65.30
36716;DHT22;22699;51.034;3.730;2023-06-01T11:51:51;21.80;65.20
36716;DHT22;22699;51.034;3.730;2023-06-01T11:54:23;22.00;65.40
36716;DHT22;22699;51.034;3.730;2023-06-01T11:56:50;21.90;64.90
36716;DHT22;22699;51.034;3.730;2023-06-01T11:59:17;22.00;65.00
36716;DHT22;22699;51.034;3.730;2023-06-01T12:01:45;22.00;64.70
36716;DHT22;22699;51.034;3.730;2023-06-01T12:04:17;22.00;65.40
36716;DHT22;22699;51.034;3.730;2023-06-01T12:06:44;21.90;65.60
36716;DHT22;22699;51.034;3.730;2023-06-01T12:09:11;21.90;65.10
36716;DHT22;22699;51.034;3.730;2023-06-01T12:11:37;21.90;65.10
36716;DHT22;22699;51.034;3.730;2023-06-01T12:14:04;21.90;65.60
36716;DHT22;22699;51.034;3.730;2023-06-01T12:16:53;21.90;65.90
36716;DHT22;22699;51.034;3.730;2023-06-01T12:19:20;21.90;65.30
36716;DHT22;22699;51.034;3.730;2023-06-01T12:21:51;21.90;65.70
36716;DHT22;22699;51.034;3.730;2023-06-01T12:24:27;22.00;65.80
36716;DHT22;22699;51.034;3.730;2023-06-01T12:26:59;21.90;66.00
36716;DHT22;22699;51.034;3.730;2023-06-01T12:29:41;21.90;66.30
36716;DHT22;22699;51.034;3.730;2023-06-01T12:32:10;21.80;66.60
36716;DHT22;22699;51.034;3.730;2023-06-01T12:34:38;21.90;66.80
36716;DHT22;22699;51.034;3.730;2023-06-01T12:37:19;22.00;66.90
36716;DHT22;22699;51.034;3.730;2023-06-01T12:39:55;21.90;66.90
36716;DHT22;22699;51.034;3.730;2023-06-01T12:42:38;21.90;67.20
36716;DHT22;22699;51.034;3.730;2023-06-01T12:45:04;21.90;66.80
36716;DHT22;22699;51.034;3.730;2023-06-01T12:47:40;22.00;66.20
36716;DHT22;22699;51.034;3.730;2023-06-01T12:50:09;22.10;66.00
36716;DHT22;22699;51.034;3.730;2023-06-01T12:52:35;22.30;66.10
36716;DHT22;22699;51.034;3.730;2023-06-01T12:55:02;22.20;65.20
36716;DHT22;22699;51.034;3.730;2023-06-01T12:57:29;22.20;66.00
36716;DHT22;22699;51.034;3.730;2023-06-01T12:59:56;22.00;65.80
36716;DHT22;22699;51.034;3.730;2023-06-01T13:02:21;22.00;65.60
36716;DHT22;22699;51.034;3.730;2023-06-01T13:04:48;21.80;65.80
36716;DHT22;22699;51.034;3.730;2023-06-01T13:07:14;21.80;66.10
36716;DHT22;22699;51.034;3.730;2023-06-01T13:09:40;21.80;65.60
36716;DHT22;22699;51.034;3.730;2023-06-01T13:12:06;21.90;65.50
36716;DHT22;22699;51.034;3.730;2023-06-01T13:14:32;22.00;65.10
36716;DHT22;22699;51.034;3.730;2023-06-01T13:16:57;21.90;64.80
36716;DHT22;22699;51.034;3.730;2023-06-01T13:19:24;22.00;64.70
36716;DHT22;22699;51.034;3.730;2023-06-01T13:21:51;21.90;64.20
36716;DHT22;22699;51.034;3.730;2023-06-01T13:24:17;22.00;63.90
36716;DHT22;22699;51.034;3.730;2023-06-01T13:26:43;22.00;64.40
36716;DHT22;22699;51.034;3.730;2023-06-01T13:29:10;22.00;64.30
36716;DHT22;22699;51.034;3.730;2023-06-01T13:31:36;22.20;65.20
36716;DHT22;22699;51.034;3.730;2023-06-01T13:34:04;22.30;65.00
36716;DHT22;22699;51.034;3.730;2023-06-01T13:36:30;22.30;65.40
36716;DHT22;22699;51.034;3.730;2023-06-01T13:38:57;22.20;66.20
36716;DHT22;22699;51.034;3.730;2023-06-01T13:41:23;22.10;67.10
36716;DHT22;22699;51.034;3.730;2023-06-01T13:43:49;21.80;68.00
36716;DHT22;22699;51.034;3.730;2023-06-01T13:46:14;21.80;68.30
36716;DHT22;22699;51.034;3.730;2023-06-01T13:48:40;21.90;68.10
36716;DHT22;22699;51.034;3.730;2023-06-01T13:51:06;21.80;68.00
36716;DHT22;22699;51.034;3.730;2023-06-01T13:53:32;21.90;68.70
36716;DHT22;22699;51.034;3.730;2023-06-01T13:56:01;21.70;68.40
36716;DHT22;22699;51.034;3.730;2023-06-01T13:58:27;21.70;68.90
36716;DHT22;22699;51.034;3.730;2023-06-01T14:00:53;21.80;69.10
36716;DHT22;22699;51.034;3.730;2023-06-01T14:03:19;21.80;69.20
36716;DHT22;22699;51.034;3.730;2023-06-01T14:05:45;21.80;69.20
36716;DHT22;22699;51.034;3.730;2023-06-01T14:08:11;21.80;69.30
36716;DHT22;22699;51.034;3.730;2023-06-01T14:10:36;21.70;69.50
36716;DHT22;22699;51.034;3.730;2023-06-01T14:13:02;21.70;69.50
36716;DHT22;22699;51.034;3.730;2023-06-01T14:15:28;21.60;69.80
36716;DHT22;22699;51.034;3.730;2023-06-01T14:17:54;21.70;70.10
36716;DHT22;22699;51.034;3.730;2023-06-01T14:20:21;21.80;70.00
36716;DHT22;22699;51.034;3.730;2023-06-01T14:22:46;21.80;69.80
36716;DHT22;22699;51.034;3.730;2023-06-01T14:25:12;21.50;70.10
36716;DHT22;22699;51.034;3.730;2023-06-01T14:27:39;21.50;70.30
36716;DHT22;22699;51.034;3.730;2023-06-01T14:30:06;21.50;70.10
36716;DHT22;22699;51.034;3.730;2023-06-01T14:32:32;21.50;70.10
36716;DHT22;22699;51.034;3.730;2023-06-01T14:34:57;21.50;70.20
36716;DHT22;22699;51.034;3.730;2023-06-01T14:37:23;21.50;70.20
36716;DHT22;22699;51.034;3.730;2023-06-01T14:39:49;21.50;69.60
36716;DHT22;22699;51.034;3.730;2023-06-01T14:42:16;21.40;70.20
36716;DHT22;22699;51.034;3.730;2023-06-01T14:44:43;21.30;70.60
36716;DHT22;22699;51.034;3.730;2023-06-01T14:47:08;21.30;71.40
36716;DHT22;22699;51.034;3.730;2023-06-01T14:49:37;21.20;70.90
36716;DHT22;22699;51.034;3.730;2023-06-01T14:52:02;21.30;71.10
36716;DHT22;22699;51.034;3.730;2023-06-01T14:54:28;21.30;70.80
36716;DHT22;22699;51.034;3.730;2023-06-01T14:56:54;21.10;71.00
36716;DHT22;22699;51.034;3.730;2023-06-01T14:59:19;21.10;71.20
36716;DHT22;22699;51.034;3.730;2023-06-01T15:01:46;21.00;71.80
36716;DHT22;22699;51.034;3.730;2023-06-01T15:04:12;20.90;71.30
36716;DHT22;22699;51.034;3.730;2023-06-01T15:06:37;21.00;71.30
36716;DHT22;22699;51.034;3.730;2023-06-01T15:09:03;21.00;71.10
36716;DHT22;22699;51.034;3.730;2023-06-01T15:11:30;21.00;71.00
36716;DHT22;22699;51.034;3.730;2023-06-01T15:13:57;21.00;70.90
36716;DHT22;22699;51.034;3.730;2023-06-01T15:16:22;20.90;71.20
36716;DHT22;22699;51.034;3.730;2023-06-01T15:18:48;20.90;71.00
36716;DHT22;22699;51.034;3.730;2023-06-01T15:21:13;20.90;70.90
36716;DHT22;22699;51.034;3.730;2023-06-01T15:23:40;20.80;71.30
36716;DHT22;22699;51.034;3.730;2023-06-01T15:26:06;20.80;71.50
36716;DHT22;22699;51.034;3.730;2023-06-01T15:28:31;20.80;71.50
36716;DHT22;22699;51.034;3.730;2023-06-01T15:30:57;20.70;71.50
36716;DHT22;22699;51.034;3.730;2023-06-01T15:33:24;20.70;71.50
36716;DHT22;22699;51.034;3.730;2023-06-01T15:35:49;20.70;71.20
36716;DHT22;22699;51.034;3.730;2023-06-01T15:38:15;20.60;71.60
36716;DHT22;22699;51.034;3.730;2023-06-01T15:40:41;20.70;71.80
36716;DHT22;22699;51.034;3.730;2023-06-01T15:43:06;20.70;71.80
36716;DHT22;22699;51.034;3.730;2023-06-01T15:45:32;20.80;71.40
36716;DHT22;22699;51.034;3.730;2023-06-01T15:47:57;20.60;71.60
36716;DHT22;22699;51.034;3.730;2023-06-01T15:50:23;20.40;72.20
36716;DHT22;22699;51.034;3.730;2023-06-01T15:52:48;20.50;72.40
36716;DHT22;22699;51.034;3.730;2023-06-01T15:55:14;20.50;72.40
36716;DHT22;22699;51.034;3.730;2023-06-01T15:57:40;20.70;72.10
36716;DHT22;22699;51.034;3.730;2023-06-01T16:00:06;20.50;72.20
36716;DHT22;22699;51.034;3.730;2023-06-01T16:02:31;20.50;72.40
36716;DHT22;22699;51.034;3.730;2023-06-01T16:04:57;20.40;72.60